Time;durP1;ratioP1;P1;durP2;ratioP2;P2;SDS_P1;SDS_P2;PMS_P1;PMS_P2;Temp;Humidity;BMP_temperature;BMP_pressure;BME280_temperature;BME280_humidity;BME280_pressure;Samples;Min_cycle;Max_cycle;Signal;HPM_P1;HPM_P2
2023/07/09 00:02:19;;;;;;;;;;;;;;;;;;7378052;19;19962;-64
2023/07/09 00:04:45;;;;;;;;;;;;;;;;;;7379374;19;19911;-64
2023/07/09 00:07:18;;;;;;;;;;;;;;;;;;7374204;19;19947;-63
2023/07/09 00:09:44;;;;;;;;;;;;;;;;;;7376191;19;19911;-64
2023/07/09 00:12:13;;;;;;;;;;;;;;;;;;7388319;19;19951;-62
2023/07/09 00:14:38;;;;;;;;;;;;;;;;;;7367417;19;20008;-64
2023/07/09 00:17:08;;;;;;;;;;;;;;;;;;7365976;19;20069;-64
2023/07/09 00:19:33;;;;;;;;;;;;;;;;;;7365332;19;19935;-64
2023/07/09 00:21:58;;;;;;;;;;;;;;;;;;7364254;19;19922;-64
2023/07/09 00:24:23;;;;;;;;;;;;;;;;;;7388084;19;19926;-64
2023/07/09 00:26:49;;;;;;;;;;;;;;;;;;7365870;19;19923;-64
2023/07/09 00:29:15;;;;;;;;;;;;;;;;;;7365832;19;19918;-63
2023/07/09 00:31:41;;;;;;;;;;;;;;;;;;7365306;19;19915;-63
2023/07/09 00:34:13;;;;;;;;;;;;;;;;;;7368030;19;19945;-65
2023/07/09 00:36:38;;;;;;;;;;;;;;;;;;7388497;19;19919;-64
2023/07/09 00:39:04;;;;;;;;;;;;;;;;;;7363017;19;19982;-62
2023/07/09 00:41:34;;;;;;;;;;;;;;;;;;7366466;19;19925;-63
2023/07/09 00:44:08;;;;;;;;;;;;;;;;;;7367398;19;19929;-63
2023/07/09 00:46:33;;;;;;;;;;;;;;;;;;7366249;19;19915;-63
2023/07/09 00:49:08;;;;;;;;;;;;;;;;;;7364506;19;19922;-63
2023/07/09 00:51:41;;;;;;;;;;;;;;;;;;7385583;19;19930;-63
2023/07/09 00:54:24;;;;;;;;;;;;;;;;;;7364405;19;19922;-63
2023/07/09 00:56:52;;;;;;;;;;;;;;;;;;7365514;19;19915;-63
2023/07/09 00:59:19;;;;;;;;;;;;;;;;;;7365284;19;19919;-63
2023/07/09 01:01:47;;;;;;;;;;;;;;;;;;7363437;19;19927;-62
2023/07/09 01:04:13;;;;;;;;;;;;;;;;;;7366710;19;19988;-62
2023/07/09 01:06:43;;;;;;;;;;;;;;;;;;7386977;19;20550;-62
2023/07/09 01:09:09;;;;;;;;;;;;;;;;;;7362492;19;19930;-63
2023/07/09 01:11:37;;;;;;;;;;;;;;;;;;7362998;19;19923;-63
2023/07/09 01:14:05;;;;;;;;;;;;;;;;;;7364557;19;20302;-63
2023/07/09 01:16:33;;;;;;;;;;;;;;;;;;7365100;19;19914;-63
2023/07/09 01:19:00;;;;;;;;;;;;;;;;;;7363958;19;19974;-63
2023/07/09 01:21:26;;;;;;;;;;;;;;;;;;7385160;19;19923;-63
2023/07/09 01:23:52;;;;;;;;;;;;;;;;;;7364161;19;19915;-63
2023/07/09 01:26:26;;;;;;;;;;;;;;;;;;7362442;19;19971;-63
2023/07/09 01:28:52;;;;;;;;;;;;;;;;;;7364715;19;20334;-63
2023/07/09 01:31:18;;;;;;;;;;;;;;;;;;7362860;19;19925;-64
2023/07/09 01:33:47;;;;;;;;;;;;;;;;;;7378062;19;19944;-64
2023/07/09 01:36:13;;;;;;;;;;;;;;;;;;7385784;19;19917;-63
2023/07/09 01:38:42;;;;;;;;;;;;;;;;;;7359830;19;19922;-63
2023/07/09 01:41:07;;;;;;;;;;;;;;;;;;7361702;19;20358;-64
2023/07/09 01:43:33;;;;;;;;;;;;;;;;;;7363337;19;19915;-65
2023/07/09 01:45:59;;;;;;;;;;;;;;;;;;7363077;19;19944;-64
2023/07/09 01:48:25;;;;;;;;;;;;;;;;;;7382678;19;19922;-64
2023/07/09 01:50:51;;;;;;;;;;;;;;;;;;7360936;19;19958;-63
2023/07/09 01:53:19;;;;;;;;;;;;;;;;;;7362361;19;19923;-64
2023/07/09 01:55:44;;;;;;;;;;;;;;;;;;7363655;19;19934;-63
2023/07/09 01:58:10;;;;;;;;;;;;;;;;;;7364578;19;20290;-65
2023/07/09 02:00:36;;;;;;;;;;;;;;;;;;7385721;19;19931;-65
2023/07/09 02:03:02;;;;;;;;;;;;;;;;;;7364871;19;19919;-64
2023/07/09 02:05:29;;;;;;;;;;;;;;;;;;7365217;19;19927;-64
2023/07/09 02:07:54;;;;;;;;;;;;;;;;;;7361800;19;19931;-64
2023/07/09 02:10:20;;;;;;;;;;;;;;;;;;7364194;19;19923;-64
2023/07/09 02:12:45;;;;;;;;;;;;;;;;;;7364680;19;20271;-63
2023/07/09 02:15:11;;;;;;;;;;;;;;;;;;7386654;19;20334;-64
2023/07/09 02:17:36;;;;;;;;;;;;;;;;;;7363973;19;19928;-63
2023/07/09 02:20:04;;;;;;;;;;;;;;;;;;7367277;19;20267;-64
2023/07/09 02:22:29;;;;;;;;;;;;;;;;;;7371319;19;19911;-64
2023/07/09 02:24:54;;;;;;;;;;;;;;;;;;7371105;19;19948;-64
2023/07/09 02:27:21;;;;;;;;;;;;;;;;;;7390661;19;19919;-64
2023/07/09 02:29:46;;;;;;;;;;;;;;;;;;7367489;19;19938;-63
2023/07/09 02:32:16;;;;;;;;;;;;;;;;;;7369550;19;20361;-64
2023/07/09 02:34:42;;;;;;;;;;;;;;;;;;7368156;19;19934;-64
2023/07/09 02:37:07;;;;;;;;;;;;;;;;;;7369161;19;19927;-64
2023/07/09 02:39:32;;;;;;;;;;;;;;;;;;7390292;19;19940;-64
2023/07/09 02:41:58;;;;;;;;;;;;;;;;;;7368404;19;20434;-64
2023/07/09 02:44:23;;;;;;;;;;;;;;;;;;7369056;19;19915;-64
2023/07/09 02:46:48;;;;;;;;;;;;;;;;;;7368069;19;19987;-64
2023/07/09 02:49:14;;;;;;;;;;;;;;;;;;7367022;19;19927;-64
2023/07/09 02:51:39;;;;;;;;;;;;;;;;;;7391450;19;19949;-64
2023/07/09 02:54:05;;;;;;;;;;;;;;;;;;7367782;19;19953;-65
2023/07/09 02:56:30;;;;;;;;;;;;;;;;;;7371003;19;19926;-64
2023/07/09 02:58:56;;;;;;;;;;;;;;;;;;7370047;19;19927;-64
2023/07/09 03:01:24;;;;;;;;;;;;;;;;;;7367305;19;19919;-65
2023/07/09 03:03:50;;;;;;;;;;;;;;;;;;7368625;19;20368;-65
2023/07/09 03:06:16;;;;;;;;;;;;;;;;;;7389463;19;19947;-64
2023/07/09 03:08:41;;;;;;;;;;;;;;;;;;7367157;19;19922;-66
2023/07/09 03:11:10;;;;;;;;;;;;;;;;;;7367648;19;19978;-65
2023/07/09 03:13:36;;;;;;;;;;;;;;;;;;7367808;19;19923;-65
2023/07/09 03:16:01;;;;;;;;;;;;;;;;;;7369973;19;20259;-64
2023/07/09 03:18:26;;;;;;;;;;;;;;;;;;7386377;19;19914;-64
2023/07/09 03:20:51;;;;;;;;;;;;;;;;;;7368565;19;19915;-64
2023/07/09 03:23:17;;;;;;;;;;;;;;;;;;7368955;19;19953;-65
2023/07/09 03:25:43;;;;;;;;;;;;;;;;;;7369921;19;20368;-64
2023/07/09 03:28:08;;;;;;;;;;;;;;;;;;7367993;19;19931;-64
2023/07/09 03:30:33;;;;;;;;;;;;;;;;;;7386433;19;20807;-65
2023/07/09 03:33:00;;;;;;;;;;;;;;;;;;7365967;19;19923;-64
2023/07/09 03:35:25;;;;;;;;;;;;;;;;;;7367036;19;19930;-65
2023/07/09 03:37:50;;;;;;;;;;;;;;;;;;7369463;19;20404;-64
2023/07/09 03:40:20;;;;;;;;;;;;;;;;;;7373223;19;19918;-64
2023/07/09 03:42:46;;;;;;;;;;;;;;;;;;7374227;19;19942;-64
2023/07/09 03:45:11;;;;;;;;;;;;;;;;;;7394636;19;19971;-64
2023/07/09 03:47:36;;;;;;;;;;;;;;;;;;7371468;19;20002;-64
2023/07/09 03:50:01;;;;;;;;;;;;;;;;;;7372273;19;19914;-64
2023/07/09 03:52:27;;;;;;;;;;;;;;;;;;7375640;19;19919;-65
2023/07/09 03:54:52;;;;;;;;;;;;;;;;;;7376927;19;19915;-64
2023/07/09 03:57:17;;;;;;;;;;;;;;;;;;7395421;19;20342;-65
2023/07/09 03:59:42;;;;;;;;;;;;;;;;;;7372220;19;19959;-64
2023/07/09 04:02:08;;;;;;;;;;;;;;;;;;7369401;19;19923;-64
2023/07/09 04:04:33;;;;;;;;;;;;;;;;;;7370805;19;20080;-64
2023/07/09 04:06:58;;;;;;;;;;;;;;;;;;7369607;19;19925;-64
2023/07/09 04:09:23;;;;;;;;;;;;;;;;;;7388208;19;19943;-65
2023/07/09 04:11:48;;;;;;;;;;;;;;;;;;7365272;19;19920;-65
2023/07/09 04:14:14;;;;;;;;;;;;;;;;;;7367276;19;20401;-65
2023/07/09 04:16:39;;;;;;;;;;;;;;;;;;7368025;19;19922;-65
2023/07/09 04:19:04;;;;;;;;;;;;;;;;;;7364195;19;20025;-65
2023/07/09 04:21:29;;;;;;;;;;;;;;;;;;7388796;19;19915;-65
2023/07/09 04:23:55;;;;;;;;;;;;;;;;;;7367360;19;19959;-65
2023/07/09 04:26:20;;;;;;;;;;;;;;;;;;7367314;19;19919;-65
2023/07/09 04:28:45;;;;;;;;;;;;;;;;;;7364709;19;19978;-65
2023/07/09 04:31:11;;;;;;;;;;;;;;;;;;7364398;19;19922;-65
2023/07/09 04:33:36;;;;;;;;;;;;;;;;;;7388426;19;19921;-65
2023/07/09 04:36:01;;;;;;;;;;;;;;;;;;7366636;19;20274;-65
2023/07/09 04:38:26;;;;;;;;;;;;;;;;;;7366328;19;19918;-65
2023/07/09 04:40:52;;;;;;;;;;;;;;;;;;7367197;19;20059;-65
2023/07/09 04:43:17;;;;;;;;;;;;;;;;;;7367844;19;19971;-64
2023/07/09 04:45:42;;;;;;;;;;;;;;;;;;7386132;19;19923;-64
2023/07/09 04:48:07;;;;;;;;;;;;;;;;;;7365331;19;19915;-64
2023/07/09 04:50:33;;;;;;;;;;;;;;;;;;7365898;19;19946;-63
2023/07/09 04:52:58;;;;;;;;;;;;;;;;;;7368132;19;20407;-62
2023/07/09 04:55:24;;;;;;;;;;;;;;;;;;7366413;19;19922;-64
2023/07/09 04:57:50;;;;;;;;;;;;;;;;;;7365371;19;19926;-64
2023/07/09 05:00:15;;;;;;;;;;;;;;;;;;7384983;19;19926;-64
2023/07/09 05:02:40;;;;;;;;;;;;;;;;;;7363680;19;19922;-64
2023/07/09 05:05:07;;;;;;;;;;;;;;;;;;7365223;19;20563;-64
2023/07/09 05:07:33;;;;;;;;;;;;;;;;;;7363135;19;19918;-65
2023/07/09 05:09:58;;;;;;;;;;;;;;;;;;7363192;19;20282;-64
2023/07/09 05:12:26;;;;;;;;;;;;;;;;;;7387919;19;19923;-65
2023/07/09 05:14:51;;;;;;;;;;;;;;;;;;7366202;19;20394;-64
2023/07/09 05:17:16;;;;;;;;;;;;;;;;;;7367965;19;19911;-64
2023/07/09 05:19:41;;;;;;;;;;;;;;;;;;7364423;19;19919;-64
2023/07/09 05:22:07;;;;;;;;;;;;;;;;;;7367600;19;20344;-64
2023/07/09 05:24:32;;;;;;;;;;;;;;;;;;7389081;19;19926;-64
2023/07/09 05:26:57;;;;;;;;;;;;;;;;;;7364808;19;19911;-65
2023/07/09 05:29:23;;;;;;;;;;;;;;;;;;7365667;19;19923;-65
2023/07/09 05:31:48;;;;;;;;;;;;;;;;;;7363955;19;20334;-69
2023/07/09 05:34:13;;;;;;;;;;;;;;;;;;7367263;19;20339;-65
2023/07/09 05:36:39;;;;;;;;;;;;;;;;;;7387216;19;20270;-65
2023/07/09 05:39:04;;;;;;;;;;;;;;;;;;7363521;19;19942;-65
2023/07/09 05:41:29;;;;;;;;;;;;;;;;;;7363708;19;19931;-73
2023/07/09 05:43:55;;;;;;;;;;;;;;;;;;7366757;19;20507;-70
2023/07/09 05:46:21;;;;;;;;;;;;;;;;;;7363161;19;19922;-71
2023/07/09 05:48:47;;;;;;;;;;;;;;;;;;7361619;19;19918;-72
2023/07/09 05:51:12;;;;;;;;;;;;;;;;;;7386037;19;19927;-71
2023/07/09 05:53:37;;;;;;;;;;;;;;;;;;7366207;19;19914;-72
2023/07/09 05:56:02;;;;;;;;;;;;;;;;;;7376297;19;19987;-71
2023/07/09 05:58:28;;;;;;;;;;;;;;;;;;7375694;19;20302;-70
2023/07/09 06:00:53;;;;;;;;;;;;;;;;;;7373578;19;19919;-70
2023/07/09 06:03:19;;;;;;;;;;;;;;;;;;7400067;19;19971;-70
2023/07/09 06:05:44;;;;;;;;;;;;;;;;;;7371971;19;19910;-70
2023/07/09 06:08:12;;;;;;;;;;;;;;;;;;7372331;19;19919;-71
2023/07/09 06:10:37;;;;;;;;;;;;;;;;;;7370234;19;20048;-71
2023/07/09 06:13:03;;;;;;;;;;;;;;;;;;7372353;19;19968;-71
2023/07/09 06:15:28;;;;;;;;;;;;;;;;;;7395595;19;19915;-71
2023/07/09 06:17:53;;;;;;;;;;;;;;;;;;7370847;19;20593;-71
2023/07/09 06:20:18;;;;;;;;;;;;;;;;;;7371727;19;19915;-71
2023/07/09 06:22:44;;;;;;;;;;;;;;;;;;7368613;19;19914;-71
2023/07/09 06:25:09;;;;;;;;;;;;;;;;;;7370085;19;19927;-71
2023/07/09 06:27:34;;;;;;;;;;;;;;;;;;7391063;19;19923;-71
2023/07/09 06:29:59;;;;;;;;;;;;;;;;;;7369836;19;19919;-70
2023/07/09 06:32:24;;;;;;;;;;;;;;;;;;7369853;19;20016;-70
2023/07/09 06:34:50;;;;;;;;;;;;;;;;;;7372465;19;20025;-70
2023/07/09 06:37:15;;;;;;;;;;;;;;;;;;7370673;19;19935;-72
2023/07/09 06:39:40;;;;;;;;;;;;;;;;;;7390944;19;20250;-71
2023/07/09 06:42:06;;;;;;;;;;;;;;;;;;7368435;19;19917;-72
2023/07/09 06:44:31;;;;;;;;;;;;;;;;;;7369265;19;19936;-71
2023/07/09 06:46:56;;;;;;;;;;;;;;;;;;7370701;19;20253;-71
2023/07/09 06:49:22;;;;;;;;;;;;;;;;;;7373655;19;19924;-71
2023/07/09 06:51:47;;;;;;;;;;;;;;;;;;7372325;19;19926;-71
2023/07/09 06:54:15;;;;;;;;;;;;;;;;;;7393627;19;19915;-71
2023/07/09 06:56:40;;;;;;;;;;;;;;;;;;7373062;19;19923;-71
2023/07/09 06:59:05;;;;;;;;;;;;;;;;;;7369822;19;20307;-71
2023/07/09 07:01:31;;;;;;;;;;;;;;;;;;7371914;19;19940;-72
2023/07/09 07:03:56;;;;;;;;;;;;;;;;;;7370996;19;19986;-71
2023/07/09 07:06:21;;;;;;;;;;;;;;;;;;7395062;19;19918;-71
2023/07/09 07:08:46;;;;;;;;;;;;;;;;;;7372134;19;19910;-71
2023/07/09 07:11:12;;;;;;;;;;;;;;;;;;7371411;19;19928;-71
2023/07/09 07:13:38;;;;;;;;;;;;;;;;;;7369109;19;20020;-71
2023/07/09 07:16:08;;;;;;;;;;;;;;;;;;7371464;19;19916;-71
2023/07/09 07:18:33;;;;;;;;;;;;;;;;;;7392804;19;19919;-72
2023/07/09 07:20:59;;;;;;;;;;;;;;;;;;7370474;19;19925;-71
2023/07/09 07:23:24;;;;;;;;;;;;;;;;;;7368862;19;19942;-71
2023/07/09 07:25:50;;;;;;;;;;;;;;;;;;7368804;19;20004;-71
2023/07/09 07:28:15;;;;;;;;;;;;;;;;;;7370026;19;19926;-71
2023/07/09 07:30:41;;;;;;;;;;;;;;;;;;7389582;19;19911;-71
2023/07/09 07:33:06;;;;;;;;;;;;;;;;;;7370857;19;19923;-71
2023/07/09 07:35:32;;;;;;;;;;;;;;;;;;7371828;19;19943;-70
2023/07/09 07:37:57;;;;;;;;;;;;;;;;;;7370932;19;19923;-71
2023/07/09 07:40:22;;;;;;;;;;;;;;;;;;7370119;19;20373;-71
2023/07/09 07:42:48;;;;;;;;;;;;;;;;;;7370949;19;19910;-71
2023/07/09 07:45:13;;;;;;;;;;;;;;;;;;7392239;19;20363;-71
2023/07/09 07:47:39;;;;;;;;;;;;;;;;;;7368309;19;20622;-72
2023/07/09 07:50:05;;;;;;;;;;;;;;;;;;7370534;19;19978;-71
2023/07/09 07:52:30;;;;;;;;;;;;;;;;;;7371737;19;20275;-70
2023/07/09 07:54:55;;;;;;;;;;;;;;;;;;7370200;19;19929;-70
2023/07/09 07:57:21;;;;;;;;;;;;;;;;;;7391523;19;19911;-71
2023/07/09 07:59:47;;;;;;;;;;;;;;;;;;7369415;19;19926;-70
2023/07/09 08:02:13;;;;;;;;;;;;;;;;;;7370023;19;19929;-62
2023/07/09 08:04:40;;;;;;;;;;;;;;;;;;7368388;19;19958;-61
2023/07/09 08:07:05;;;;;;;;;;;;;;;;;;7358008;19;19935;-60
2023/07/09 08:09:30;;;;;;;;;;;;;;;;;;7387169;19;19925;-61
2023/07/09 08:11:55;;;;;;;;;;;;;;;;;;7363069;19;20336;-61
2023/07/09 08:14:21;;;;;;;;;;;;;;;;;;7364236;19;19923;-60
2023/07/09 08:16:47;;;;;;;;;;;;;;;;;;7363947;19;19978;-60
2023/07/09 08:19:12;;;;;;;;;;;;;;;;;;7363295;19;19930;-60
2023/07/09 08:21:37;;;;;;;;;;;;;;;;;;7383549;19;19915;-61
2023/07/09 08:24:03;;;;;;;;;;;;;;;;;;7364650;19;20392;-62
2023/07/09 08:26:28;;;;;;;;;;;;;;;;;;7380783;19;19929;-60
2023/07/09 08:28:54;;;;;;;;;;;;;;;;;;7369946;19;19930;-61
2023/07/09 08:31:19;;;;;;;;;;;;;;;;;;7365521;19;19944;-62
2023/07/09 08:33:45;;;;;;;;;;;;;;;;;;7367599;19;19919;-61
2023/07/09 08:36:10;;;;;;;;;;;;;;;;;;7387765;19;20472;-61
2023/07/09 08:38:35;;;;;;;;;;;;;;;;;;7365702;19;19958;-62
2023/07/09 08:41:06;;;;;;;;;;;;;;;;;;7365817;19;19978;-60
2023/07/09 08:43:33;;;;;;;;;;;;;;;;;;7368341;19;20665;-62
2023/07/09 08:46:07;;;;;;;;;;;;;;;;;;7367217;19;19926;-62
2023/07/09 08:48:33;;;;;;;;;;;;;;;;;;7386725;19;20395;-61
2023/07/09 08:51:00;;;;;;;;;;;;;;;;;;7362609;19;20402;-62
2023/07/09 08:53:32;;;;;;;;;;;;;;;;;;7365122;19;20433;-61
2023/07/09 08:55:58;;;;;;;;;;;;;;;;;;7364030;19;19982;-61
2023/07/09 08:58:28;;;;;;;;;;;;;;;;;;7364732;19;20600;-61
2023/07/09 09:00:55;;;;;;;;;;;;;;;;;;7364881;19;19918;-61
2023/07/09 09:03:20;;;;;;;;;;;;;;;;;;7387227;19;19930;-61
2023/07/09 09:05:48;;;;;;;;;;;;;;;;;;7363556;19;19923;-65
2023/07/09 09:08:32;;;;;;;;;;;;;;;;;;7362941;19;19927;-66
2023/07/09 09:11:17;;;;;;;;;;;;;;;;;;7362043;19;19915;-66
2023/07/09 09:13:44;;;;;;;;;;;;;;;;;;7363885;19;19928;-65
2023/07/09 09:16:14;;;;;;;;;;;;;;;;;;7364896;19;19951;-66
2023/07/09 09:18:43;;;;;;;;;;;;;;;;;;7386954;19;19918;-64
2023/07/09 09:21:19;;;;;;;;;;;;;;;;;;7361955;19;19958;-66
2023/07/09 09:23:53;;;;;;;;;;;;;;;;;;7363095;19;20341;-66
2023/07/09 09:26:23;;;;;;;;;;;;;;;;;;7362620;19;19915;-66
2023/07/09 09:28:48;;;;;;;;;;;;;;;;;;7361710;19;20375;-65
2023/07/09 09:31:14;;;;;;;;;;;;;;;;;;7369462;19;19923;-66
2023/07/09 09:33:47;;;;;;;;;;;;;;;;;;7393703;19;20381;-65
2023/07/09 09:36:23;;;;;;;;;;;;;;;;;;7369556;19;20269;-66
2023/07/09 09:38:50;;;;;;;;;;;;;;;;;;7367615;19;19915;-66
2023/07/09 09:41:18;;;;;;;;;;;;;;;;;;7370069;19;20320;-66
2023/07/09 09:43:44;;;;;;;;;;;;;;;;;;7372915;19;19923;-66
2023/07/09 09:46:16;;;;;;;;;;;;;;;;;;7365063;19;19986;-66
2023/07/09 09:48:44;;;;;;;;;;;;;;;;;;7391667;19;19931;-66
2023/07/09 09:51:10;;;;;;;;;;;;;;;;;;7369176;19;19927;-67
2023/07/09 09:53:40;;;;;;;;;;;;;;;;;;7373246;19;19929;-67
2023/07/09 09:56:06;;;;;;;;;;;;;;;;;;7368476;19;19919;-67
2023/07/09 09:58:35;;;;;;;;;;;;;;;;;;7370222;19;20039;-69
2023/07/09 10:01:00;;;;;;;;;;;;;;;;;;7368414;19;20346;-66
2023/07/09 10:03:32;;;;;;;;;;;;;;;;;;7393909;19;19964;-66
2023/07/09 10:05:59;;;;;;;;;;;;;;;;;;7369026;19;19922;-66
2023/07/09 10:08:27;;;;;;;;;;;;;;;;;;7370725;19;19926;-66
2023/07/09 10:10:53;;;;;;;;;;;;;;;;;;7370355;19;19915;-65
2023/07/09 10:13:32;;;;;;;;;;;;;;;;;;7370498;19;20309;-65
2023/07/09 10:16:06;;;;;;;;;;;;;;;;;;7372376;19;19922;-64
2023/07/09 10:18:40;;;;;;;;;;;;;;;;;;7391206;19;20341;-65
2023/07/09 10:21:09;;;;;;;;;;;;;;;;;;7369849;19;19922;-65
2023/07/09 10:23:38;;;;;;;;;;;;;;;;;;7372873;19;20346;-66
2023/07/09 10:26:09;;;;;;;;;;;;;;;;;;7372177;19;19918;-67
2023/07/09 10:28:52;;;;;;;;;;;;;;;;;;7369579;19;19915;-66
2023/07/09 10:31:50;;;;;;;;;;;;;;;;;;7370759;19;19949;-66
2023/07/09 10:34:27;;;;;;;;;;;;;;;;;;7367569;19;19915;-65
2023/07/09 10:37:11;;;;;;;;;;;;;;;;;;7369488;19;19913;-66
2023/07/09 10:39:51;;;;;;;;;;;;;;;;;;7390175;19;20270;-66
2023/07/09 10:42:24;;;;;;;;;;;;;;;;;;7370633;19;19915;-66
2023/07/09 10:44:56;;;;;;;;;;;;;;;;;;7369532;19;19931;-67
2023/07/09 10:47:41;;;;;;;;;;;;;;;;;;7369264;19;20383;-66
2023/07/09 10:50:11;;;;;;;;;;;;;;;;;;7364909;19;23426;-66
2023/07/09 10:52:39;;;;;;;;;;;;;;;;;;7370709;19;20370;-67
2023/07/09 10:55:22;;;;;;;;;;;;;;;;;;7366301;19;19923;-66
2023/07/09 10:57:47;;;;;;;;;;;;;;;;;;7366773;19;19915;-65
2023/07/09 11:00:18;;;;;;;;;;;;;;;;;;7388506;19;19922;-67
2023/07/09 11:02:44;;;;;;;;;;;;;;;;;;7369808;19;19923;-65
2023/07/09 11:05:09;;;;;;;;;;;;;;;;;;7365429;19;19927;-66
2023/07/09 11:07:43;;;;;;;;;;;;;;;;;;7368558;19;19918;-65
2023/07/09 11:10:20;;;;;;;;;;;;;;;;;;7366097;19;19919;-66
2023/07/09 11:12:51;;;;;;;;;;;;;;;;;;7370195;19;19926;-68
2023/07/09 11:15:19;;;;;;;;;;;;;;;;;;7389762;19;20513;-66
2023/07/09 11:17:46;;;;;;;;;;;;;;;;;;7367275;19;19926;-66
2023/07/09 11:20:24;;;;;;;;;;;;;;;;;;7365651;19;19917;-66
2023/07/09 11:22:54;;;;;;;;;;;;;;;;;;7369901;19;19919;-65
2023/07/09 11:25:40;;;;;;;;;;;;;;;;;;7369682;19;20409;-65
2023/07/09 11:28:06;;;;;;;;;;;;;;;;;;7367554;19;19922;-66
2023/07/09 11:30:32;;;;;;;;;;;;;;;;;;7388135;19;20252;-67
2023/07/09 11:32:57;;;;;;;;;;;;;;;;;;7367198;19;19919;-66
2023/07/09 11:35:24;;;;;;;;;;;;;;;;;;7367625;19;19935;-66
2023/07/09 11:37:50;;;;;;;;;;;;;;;;;;7367182;19;19983;-65
2023/07/09 11:40:18;;;;;;;;;;;;;;;;;;7365937;19;19919;-66
2023/07/09 11:42:51;;;;;;;;;;;;;;;;;;7377402;19;19931;-65
2023/07/09 11:45:20;;;;;;;;;;;;;;;;;;7390293;19;19926;-66
2023/07/09 11:47:48;;;;;;;;;;;;;;;;;;7365648;19;19935;-66
2023/07/09 11:50:25;;;;;;;;;;;;;;;;;;7366667;19;19930;-66
2023/07/09 11:52:58;;;;;;;;;;;;;;;;;;7367500;19;19914;-65
2023/07/09 11:55:43;;;;;;;;;;;;;;;;;;7368581;19;19949;-65
2023/07/09 11:58:10;;;;;;;;;;;;;;;;;;7364344;19;19918;-66
2023/07/09 12:00:38;;;;;;;;;;;;;;;;;;7389369;19;19953;-66
2023/07/09 12:03:03;;;;;;;;;;;;;;;;;;7366362;19;19999;-65
2023/07/09 12:05:29;;;;;;;;;;;;;;;;;;7367261;19;19914;-64
2023/07/09 12:07:55;;;;;;;;;;;;;;;;;;7366745;19;19952;-66
2023/07/09 12:10:22;;;;;;;;;;;;;;;;;;7363093;19;19914;-70
2023/07/09 12:12:48;;;;;;;;;;;;;;;;;;7368623;19;19910;-68
2023/07/09 12:15:23;;;;;;;;;;;;;;;;;;7390697;19;19914;-67
2023/07/09 12:17:57;;;;;;;;;;;;;;;;;;7365129;19;19919;-68
2023/07/09 12:20:22;;;;;;;;;;;;;;;;;;7365872;19;19919;-71
2023/07/09 12:22:47;;;;;;;;;;;;;;;;;;7367383;19;19930;-70
2023/07/09 12:25:19;;;;;;;;;;;;;;;;;;7366956;19;20520;-71
2023/07/09 12:27:44;;;;;;;;;;;;;;;;;;7370786;19;19926;-71
2023/07/09 12:30:11;;;;;;;;;;;;;;;;;;7385336;19;19911;-67
2023/07/09 12:32:43;;;;;;;;;;;;;;;;;;7364331;19;19943;-63
2023/07/09 12:35:11;;;;;;;;;;;;;;;;;;7364838;19;20659;-66
2023/07/09 12:37:37;;;;;;;;;;;;;;;;;;7364007;19;19926;-65
2023/07/09 12:40:02;;;;;;;;;;;;;;;;;;7363512;19;19981;-63
2023/07/09 12:42:33;;;;;;;;;;;;;;;;;;7386950;19;21360;-63
2023/07/09 12:44:58;;;;;;;;;;;;;;;;;;7364442;19;19922;-69
2023/07/09 12:47:24;;;;;;;;;;;;;;;;;;7361791;19;20431;-70
2023/07/09 12:49:51;;;;;;;;;;;;;;;;;;7362744;19;19919;-60
2023/07/09 12:52:21;;;;;;;;;;;;;;;;;;7363633;19;19986;-61
2023/07/09 12:55:00;;;;;;;;;;;;;;;;;;7364222;19;21372;-62
2023/07/09 12:57:26;;;;;;;;;;;;;;;;;;7385670;19;19919;-61
2023/07/09 12:59:53;;;;;;;;;;;;;;;;;;7362128;19;19922;-62
2023/07/09 13:02:28;;;;;;;;;;;;;;;;;;7364671;19;19915;-62
2023/07/09 13:05:01;;;;;;;;;;;;;;;;;;7363293;19;20029;-62
2023/07/09 13:07:32;;;;;;;;;;;;;;;;;;7364703;19;19910;-63
2023/07/09 13:10:03;;;;;;;;;;;;;;;;;;7362668;19;19947;-70
2023/07/09 13:12:30;;;;;;;;;;;;;;;;;;7387207;19;20332;-69
2023/07/09 13:14:56;;;;;;;;;;;;;;;;;;7362279;19;19998;-61
2023/07/09 13:17:21;;;;;;;;;;;;;;;;;;7361804;19;19923;-57
2023/07/09 13:19:46;;;;;;;;;;;;;;;;;;7363205;19;19947;-60
2023/07/09 13:22:13;;;;;;;;;;;;;;;;;;7361926;19;20313;-59
2023/07/09 13:24:39;;;;;;;;;;;;;;;;;;7386483;19;19925;-58
2023/07/09 13:27:06;;;;;;;;;;;;;;;;;;7361722;19;19978;-59
2023/07/09 13:29:33;;;;;;;;;;;;;;;;;;7363058;19;20334;-57
2023/07/09 13:31:58;;;;;;;;;;;;;;;;;;7363038;19;20481;-64
2023/07/09 13:34:24;;;;;;;;;;;;;;;;;;7368704;19;19978;-70
2023/07/09 13:36:50;;;;;;;;;;;;;;;;;;7365201;19;19940;-62
2023/07/09 13:39:16;;;;;;;;;;;;;;;;;;7384115;19;19919;-62
2023/07/09 13:41:45;;;;;;;;;;;;;;;;;;7362397;19;20334;-64
2023/07/09 13:44:12;;;;;;;;;;;;;;;;;;7362635;19;19943;-64
2023/07/09 13:46:38;;;;;;;;;;;;;;;;;;7362882;19;19922;-64
2023/07/09 13:49:04;;;;;;;;;;;;;;;;;;7362407;19;19947;-65
2023/07/09 13:51:30;;;;;;;;;;;;;;;;;;7384857;19;19915;-65
2023/07/09 13:53:55;;;;;;;;;;;;;;;;;;7367187;19;19990;-66
2023/07/09 13:56:21;;;;;;;;;;;;;;;;;;7366520;19;19919;-63
2023/07/09 13:58:46;;;;;;;;;;;;;;;;;;7362387;19;19915;-65
2023/07/09 14:01:14;;;;;;;;;;;;;;;;;;7360139;19;19915;-64
2023/07/09 14:03:39;;;;;;;;;;;;;;;;;;7385710;19;19974;-63
2023/07/09 14:06:04;;;;;;;;;;;;;;;;;;7362527;19;19958;-64
2023/07/09 14:08:30;;;;;;;;;;;;;;;;;;7361852;19;19926;-66
2023/07/09 14:10:55;;;;;;;;;;;;;;;;;;7360595;19;19910;-62
2023/07/09 14:13:21;;;;;;;;;;;;;;;;;;7360827;19;19929;-63
2023/07/09 14:15:47;;;;;;;;;;;;;;;;;;7365738;19;19943;-62
2023/07/09 14:18:13;;;;;;;;;;;;;;;;;;7387940;19;19915;-63
2023/07/09 14:20:39;;;;;;;;;;;;;;;;;;7368370;19;19952;-63
2023/07/09 14:23:04;;;;;;;;;;;;;;;;;;7365173;19;19930;-61
2023/07/09 14:25:29;;;;;;;;;;;;;;;;;;7369689;19;19923;-61
2023/07/09 14:27:55;;;;;;;;;;;;;;;;;;7367951;19;19915;-63
2023/07/09 14:30:22;;;;;;;;;;;;;;;;;;7390065;19;20036;-63
2023/07/09 14:32:48;;;;;;;;;;;;;;;;;;7368811;19;19919;-61
2023/07/09 14:35:23;;;;;;;;;;;;;;;;;;7370100;19;19932;-62
2023/07/09 14:37:49;;;;;;;;;;;;;;;;;;7370042;19;19922;-61
2023/07/09 14:40:15;;;;;;;;;;;;;;;;;;7368118;19;19915;-61
2023/07/09 14:42:41;;;;;;;;;;;;;;;;;;7391428;19;19936;-61
2023/07/09 14:45:17;;;;;;;;;;;;;;;;;;7368809;19;19929;-62
2023/07/09 14:47:43;;;;;;;;;;;;;;;;;;7367761;19;19919;-62
2023/07/09 14:50:09;;;;;;;;;;;;;;;;;;7367861;19;20235;-63
2023/07/09 14:52:34;;;;;;;;;;;;;;;;;;7371474;19;19922;-60
2023/07/09 14:54:59;;;;;;;;;;;;;;;;;;7369412;19;19919;-62
2023/07/09 14:57:26;;;;;;;;;;;;;;;;;;7391819;19;20741;-63
2023/07/09 14:59:51;;;;;;;;;;;;;;;;;;7368855;19;20369;-59
2023/07/09 15:02:31;;;;;;;;;;;;;;;;;;7367953;19;19923;-62
2023/07/09 15:04:57;;;;;;;;;;;;;;;;;;7368704;19;19935;-60
2023/07/09 15:07:22;;;;;;;;;;;;;;;;;;7368715;19;20571;-60
2023/07/09 15:09:47;;;;;;;;;;;;;;;;;;7367590;19;19926;-62
2023/07/09 15:12:25;;;;;;;;;;;;;;;;;;7389976;19;19922;-64
2023/07/09 15:14:51;;;;;;;;;;;;;;;;;;7370868;19;19923;-61
2023/07/09 15:17:16;;;;;;;;;;;;;;;;;;7369952;19;20370;-63
2023/07/09 15:19:41;;;;;;;;;;;;;;;;;;7370711;19;19923;-58
2023/07/09 15:22:18;;;;;;;;;;;;;;;;;;7365171;19;19923;-60
2023/07/09 15:24:45;;;;;;;;;;;;;;;;;;7381337;19;19911;-60
2023/07/09 15:27:10;;;;;;;;;;;;;;;;;;7386481;19;19922;-62
2023/07/09 15:29:36;;;;;;;;;;;;;;;;;;7370397;19;19919;-63
2023/07/09 15:32:01;;;;;;;;;;;;;;;;;;7369362;19;19919;-62
2023/07/09 15:34:26;;;;;;;;;;;;;;;;;;7370133;19;19934;-63
2023/07/09 15:36:52;;;;;;;;;;;;;;;;;;7367504;19;19950;-63
2023/07/09 15:39:18;;;;;;;;;;;;;;;;;;7385441;19;19911;-63
2023/07/09 15:41:43;;;;;;;;;;;;;;;;;;7369734;19;19915;-61
2023/07/09 15:44:12;;;;;;;;;;;;;;;;;;7369315;19;19918;-61
2023/07/09 15:46:38;;;;;;;;;;;;;;;;;;7370105;19;20284;-63
2023/07/09 15:49:04;;;;;;;;;;;;;;;;;;7367818;19;19930;-62
2023/07/09 15:51:29;;;;;;;;;;;;;;;;;;7387501;19;19914;-62
2023/07/09 15:53:54;;;;;;;;;;;;;;;;;;7366692;19;20300;-62
2023/07/09 15:56:29;;;;;;;;;;;;;;;;;;7368051;19;19995;-65
2023/07/09 15:58:55;;;;;;;;;;;;;;;;;;7365298;19;20340;-67
2023/07/09 16:01:21;;;;;;;;;;;;;;;;;;7367091;19;19934;-61
2023/07/09 16:03:47;;;;;;;;;;;;;;;;;;7367041;19;19919;-63
2023/07/09 16:06:13;;;;;;;;;;;;;;;;;;7388672;19;19930;-62
2023/07/09 16:08:38;;;;;;;;;;;;;;;;;;7367101;19;20354;-63
2023/07/09 16:11:09;;;;;;;;;;;;;;;;;;7364706;19;19982;-62
2023/07/09 16:13:34;;;;;;;;;;;;;;;;;;7368815;19;20004;-63
2023/07/09 16:15:59;;;;;;;;;;;;;;;;;;7368029;19;19919;-63
2023/07/09 16:18:24;;;;;;;;;;;;;;;;;;7383791;19;19915;-63
2023/07/09 16:20:50;;;;;;;;;;;;;;;;;;7364318;19;19911;-63
2023/07/09 16:23:19;;;;;;;;;;;;;;;;;;7365730;19;19938;-65
2023/07/09 16:25:44;;;;;;;;;;;;;;;;;;7366821;19;19923;-63
2023/07/09 16:28:19;;;;;;;;;;;;;;;;;;7365002;19;20384;-62
2023/07/09 16:30:46;;;;;;;;;;;;;;;;;;7370593;19;20287;-62
2023/07/09 16:33:11;;;;;;;;;;;;;;;;;;7387137;19;19911;-61
2023/07/09 16:35:37;;;;;;;;;;;;;;;;;;7365466;19;20282;-60
2023/07/09 16:38:02;;;;;;;;;;;;;;;;;;7363385;19;19911;-61
2023/07/09 16:40:29;;;;;;;;;;;;;;;;;;7363520;19;19926;-63
2023/07/09 16:42:56;;;;;;;;;;;;;;;;;;7365545;19;20004;-63
2023/07/09 16:45:23;;;;;;;;;;;;;;;;;;7386876;19;19978;-63
2023/07/09 16:47:49;;;;;;;;;;;;;;;;;;7365416;19;19923;-62